createdAt,value
2017-11-24T00:00:38.082Z,1005.64
2017-11-24T00:01:38.029Z,1005.63
2017-11-24T00:02:37.973Z,1005.65
2017-11-24T00:03:37.910Z,1005.65
2017-11-24T00:04:37.853Z,1005.66
2017-11-24T00:05:37.789Z,1005.64
2017-11-24T00:06:37.746Z,1005.60
2017-11-24T00:07:37.670Z,1005.66
2017-11-24T00:08:37.612Z,1005.60
2017-11-24T00:09:37.554Z,1005.56
2017-11-24T00:10:37.505Z,1005.51
2017-11-24T00:11:37.435Z,1005.50
2017-11-24T00:12:37.376Z,1005.48
2017-11-24T00:13:37.327Z,1005.55
2017-11-24T00:14:37.258Z,1005.52
2017-11-24T00:15:37.199Z,1005.54
2017-11-24T00:16:37.143Z,1005.54
2017-11-24T00:17:37.084Z,1005.54
2017-11-24T00:18:37.031Z,1005.51
2017-11-24T00:19:36.970Z,1005.57
2017-11-24T00:20:36.916Z,1005.58
2017-11-24T00:21:36.860Z,1005.55
2017-11-24T00:22:36.792Z,1005.55
2017-11-24T00:23:36.732Z,1005.61
2017-11-24T00:24:36.676Z,1005.64
2017-11-24T00:25:36.615Z,1005.68
2017-11-24T00:26:36.554Z,1005.67
2017-11-24T00:27:36.498Z,1005.64
2017-11-24T00:28:36.433Z,1005.65
2017-11-24T00:29:36.381Z,1005.65
2017-11-24T00:30:36.317Z,1005.64
2017-11-24T00:31:36.261Z,1005.61
2017-11-24T00:32:36.220Z,1005.61
2017-11-24T00:33:36.146Z,1005.63
2017-11-24T00:34:36.087Z,1005.65
2017-11-24T00:35:36.030Z,1005.66
2017-11-24T00:36:35.977Z,1005.67
2017-11-24T00:37:35.921Z,1005.70
2017-11-24T00:38:35.877Z,1005.72
2017-11-24T00:39:35.794Z,1005.75
2017-11-24T00:40:35.730Z,1005.70
2017-11-24T00:41:35.672Z,1005.73
2017-11-24T00:42:35.611Z,1005.76
2017-11-24T00:43:35.548Z,1005.74
2017-11-24T00:44:35.493Z,1005.75
2017-11-24T00:45:35.441Z,1005.77
2017-11-24T00:46:35.371Z,1005.81
2017-11-24T00:47:35.315Z,1005.84
2017-11-24T00:48:35.257Z,1005.90
2017-11-24T00:49:35.197Z,1005.92
2017-11-24T00:50:35.146Z,1005.95
2017-11-24T00:51:35.090Z,1005.94
2017-11-24T00:52:35.036Z,1005.93
2017-11-24T00:53:34.960Z,1005.96
2017-11-24T00:54:34.902Z,1006.01
2017-11-24T00:55:34.847Z,1005.95
2017-11-24T00:56:34.783Z,1005.96
2017-11-24T00:57:34.719Z,1005.87
2017-11-24T00:58:34.659Z,1005.86
2017-11-24T00:59:34.601Z,1005.83
2017-11-24T01:00:34.546Z,1005.84
2017-11-24T01:01:34.488Z,1005.81
2017-11-24T01:02:34.431Z,1005.82
2017-11-24T01:03:34.372Z,1005.84
2017-11-24T01:04:34.318Z,1005.84
2017-11-24T01:05:34.260Z,1005.86
2017-11-24T01:06:34.195Z,1005.95
2017-11-24T01:07:34.134Z,1005.96
2017-11-24T01:08:34.086Z,1005.96
2017-11-24T01:09:34.019Z,1005.93
2017-11-24T01:10:33.955Z,1005.97
2017-11-24T01:11:33.896Z,1005.93
2017-11-24T01:12:33.831Z,1005.92
2017-11-24T01:13:33.800Z,1005.94
2017-11-24T01:14:33.716Z,1005.90
2017-11-24T01:15:33.658Z,1005.87
2017-11-24T01:16:33.603Z,1005.84
2017-11-24T01:17:33.543Z,1005.84
2017-11-24T01:18:33.501Z,1005.86
2017-11-24T01:19:33.432Z,1005.83
2017-11-24T01:20:33.377Z,1005.85
2017-11-24T01:21:33.322Z,1005.85
2017-11-24T01:22:33.244Z,1005.90
2017-11-24T01:23:33.208Z,1005.89
2017-11-24T01:24:33.131Z,1005.92
2017-11-24T01:25:33.071Z,1005.94
2017-11-24T01:26:33.028Z,1005.91
2017-11-24T01:27:32.962Z,1005.92
2017-11-24T01:28:32.897Z,1005.97
2017-11-24T01:29:32.834Z,1005.92
2017-11-24T01:30:32.775Z,1005.95
2017-11-24T01:31:32.717Z,1005.89
2017-11-24T01:32:32.661Z,1005.90
2017-11-24T01:33:32.605Z,1005.90
2017-11-24T01:34:32.547Z,1005.92
2017-11-24T01:35:32.493Z,1005.91
2017-11-24T01:36:32.443Z,1005.96
2017-11-24T01:37:32.391Z,1005.93
2017-11-24T01:38:32.310Z,1005.98
2017-11-24T01:39:32.252Z,1005.93
2017-11-24T01:40:32.190Z,1005.96
2017-11-24T01:41:32.131Z,1005.96
2017-11-24T01:42:32.065Z,1005.95
2017-11-24T01:43:32.006Z,1005.91
2017-11-24T01:44:31.949Z,1005.88
2017-11-24T01:45:31.899Z,1005.88
2017-11-24T01:46:31.848Z,1005.86
2017-11-24T01:47:31.776Z,1005.89
2017-11-24T01:48:31.733Z,1005.92
2017-11-24T01:49:31.663Z,1005.91
2017-11-24T01:50:31.609Z,1005.90
2017-11-24T01:51:31.553Z,1005.90
2017-11-24T01:52:31.500Z,1005.90
2017-11-24T01:53:31.444Z,1005.88
2017-11-24T01:54:31.369Z,1005.89
2017-11-24T01:55:31.307Z,1005.91
2017-11-24T01:56:31.258Z,1005.89
2017-11-24T01:57:31.191Z,1005.92
2017-11-24T01:58:31.127Z,1005.88
2017-11-24T01:59:31.069Z,1005.88
2017-11-24T02:00:31.011Z,1005.93
2017-11-24T02:01:30.962Z,1005.93
2017-11-24T02:02:30.905Z,1005.99
2017-11-24T02:03:30.850Z,1006.04
2017-11-24T02:04:30.781Z,1006.02
2017-11-24T02:05:30.725Z,1006.01
2017-11-24T02:06:30.669Z,1005.97
2017-11-24T02:07:30.614Z,1005.99
2017-11-24T02:08:30.559Z,1005.96
2017-11-24T02:09:30.505Z,1005.97
2017-11-24T02:10:30.431Z,1005.96
2017-11-24T02:11:30.371Z,1005.99
2017-11-24T02:12:30.312Z,1005.99
2017-11-24T02:13:30.253Z,1006.00
2017-11-24T02:14:30.195Z,1006.03
2017-11-24T02:15:30.134Z,1006.06
2017-11-24T02:16:30.073Z,1006.07
2017-11-24T02:17:30.015Z,1005.98
2017-11-24T02:18:29.961Z,1005.97
2017-11-24T02:19:29.902Z,1005.98
2017-11-24T02:20:29.851Z,1006.06
2017-11-24T02:21:29.796Z,1006.04
2017-11-24T02:22:29.730Z,1006.03
2017-11-24T02:23:29.676Z,1006.02
2017-11-24T02:24:29.620Z,1005.98
2017-11-24T02:25:29.566Z,1006.04
2017-11-24T02:26:29.511Z,1006.05
2017-11-24T02:27:29.438Z,1006.09
2017-11-24T02:28:29.375Z,1006.13
2017-11-24T02:29:29.319Z,1006.13
2017-11-24T02:30:29.260Z,1006.10
2017-11-24T02:31:29.207Z,1006.06
2017-11-24T02:32:29.137Z,1005.93
2017-11-24T02:33:29.078Z,1005.95
2017-11-24T02:34:29.022Z,1005.98
2017-11-24T02:35:28.966Z,1005.99
2017-11-24T02:36:28.909Z,1006.03
2017-11-24T02:37:28.850Z,1006.04
2017-11-24T02:38:28.794Z,1006.04
2017-11-24T02:39:28.746Z,1006.05
2017-11-24T02:40:28.683Z,1006.11
2017-11-24T02:41:28.617Z,1006.12
2017-11-24T02:42:28.573Z,1006.13
2017-11-24T02:43:28.519Z,1006.15
2017-11-24T02:44:28.464Z,1006.14
2017-11-24T02:45:28.384Z,1006.11
2017-11-24T02:46:28.324Z,1006.06
2017-11-24T02:47:28.266Z,1006.02
2017-11-24T02:48:28.206Z,1006.01
2017-11-24T02:49:28.142Z,1006.02
2017-11-24T02:50:28.083Z,1006.02
2017-11-24T02:51:28.029Z,1005.94
2017-11-24T02:52:27.973Z,1005.91
2017-11-24T02:53:27.913Z,1005.94
2017-11-24T02:54:27.855Z,1005.96
2017-11-24T02:55:27.798Z,1005.94
2017-11-24T02:56:27.748Z,1005.89
2017-11-24T02:57:27.689Z,1005.90
2017-11-24T02:58:27.634Z,1005.91
2017-11-24T02:59:27.579Z,1005.88
2017-11-24T03:00:27.523Z,1005.87
2017-11-24T03:01:27.447Z,1005.84
2017-11-24T03:02:27.421Z,1005.83
2017-11-24T03:03:27.330Z,1005.81
2017-11-24T03:04:27.271Z,1005.81
2017-11-24T03:05:27.212Z,1005.81
2017-11-24T03:06:27.150Z,1005.80
2017-11-24T03:07:27.095Z,1005.82
2017-11-24T03:08:27.088Z,1005.86
2017-11-24T03:09:26.975Z,1005.85
2017-11-24T03:10:26.920Z,1005.86
2017-11-24T03:11:26.864Z,1005.87
2017-11-24T03:12:26.809Z,1005.86
2017-11-24T03:13:26.759Z,1005.87
2017-11-24T03:14:26.695Z,1005.86
2017-11-24T03:15:26.644Z,1005.86
2017-11-24T03:16:26.585Z,1005.80
2017-11-24T03:17:26.530Z,1005.82
2017-11-24T03:18:26.476Z,1005.76
2017-11-24T03:19:26.395Z,1005.74
2017-11-24T03:20:26.345Z,1005.74
2017-11-24T03:21:26.277Z,1005.76
2017-11-24T03:22:26.211Z,1005.72
2017-11-24T03:23:26.153Z,1005.75
2017-11-24T03:24:26.095Z,1005.75
2017-11-24T03:25:26.039Z,1005.76
2017-11-24T03:26:25.982Z,1005.75
2017-11-24T03:27:25.927Z,1005.75
2017-11-24T03:28:25.872Z,1005.77
2017-11-24T03:29:25.811Z,1005.79
2017-11-24T03:30:25.760Z,1005.79
2017-11-24T03:31:25.701Z,1005.80
2017-11-24T03:32:25.645Z,1005.78
2017-11-24T03:33:25.599Z,1005.76
2017-11-24T03:34:25.518Z,1005.76
2017-11-24T03:35:25.457Z,1005.79
2017-11-24T03:36:25.404Z,1005.84
2017-11-24T03:37:25.344Z,1005.84
2017-11-24T03:38:25.286Z,1005.79
2017-11-24T03:39:25.217Z,1005.82
2017-11-24T03:40:25.161Z,1005.84
2017-11-24T03:41:25.102Z,1005.83
2017-11-24T03:42:25.043Z,1005.88
2017-11-24T03:43:24.990Z,1005.85
2017-11-24T03:44:24.938Z,1005.86
2017-11-24T03:45:24.871Z,1005.88
2017-11-24T03:46:24.817Z,1005.81
2017-11-24T03:47:24.761Z,1005.81
2017-11-24T03:48:24.705Z,1005.74
2017-11-24T03:49:24.637Z,1005.68
2017-11-24T03:50:24.574Z,1005.68
2017-11-24T03:51:24.520Z,1005.71
2017-11-24T03:52:24.461Z,1005.71
2017-11-24T03:53:24.401Z,1005.71
2017-11-24T03:54:24.343Z,1005.71
2017-11-24T03:55:24.276Z,1005.69
2017-11-24T03:56:24.219Z,1005.67
2017-11-24T03:57:24.169Z,1005.70
2017-11-24T03:58:24.105Z,1005.66
2017-11-24T03:59:24.052Z,1005.66
2017-11-24T04:00:23.990Z,1005.61
2017-11-24T04:01:23.937Z,1005.60
2017-11-24T04:02:23.887Z,1005.58
2017-11-24T04:03:23.822Z,1005.59
2017-11-24T04:04:23.768Z,1005.62
2017-11-24T04:05:23.712Z,1005.58
2017-11-24T04:06:23.651Z,1005.55
2017-11-24T04:07:23.580Z,1005.59
2017-11-24T04:08:23.525Z,1005.56
2017-11-24T04:09:23.482Z,1005.54
2017-11-24T04:10:23.406Z,1005.49
2017-11-24T04:11:23.340Z,1005.47
2017-11-24T04:12:23.283Z,1005.43
2017-11-24T04:13:23.224Z,1005.40
2017-11-24T04:14:23.166Z,1005.42
2017-11-24T04:15:23.115Z,1005.42
2017-11-24T04:16:23.055Z,1005.44
2017-11-24T04:17:22.998Z,1005.40
2017-11-24T04:18:22.935Z,1005.33
2017-11-24T04:19:22.882Z,1005.34
2017-11-24T04:20:22.830Z,1005.31
2017-11-24T04:21:22.773Z,1005.32
2017-11-24T04:22:22.702Z,1005.30
2017-11-24T04:23:22.640Z,1005.32
2017-11-24T04:24:22.584Z,1005.27
2017-11-24T04:25:22.523Z,1005.23
2017-11-24T04:26:22.466Z,1005.25
2017-11-24T04:27:22.400Z,1005.23
2017-11-24T04:28:22.341Z,1005.24
2017-11-24T04:29:22.284Z,1005.23
2017-11-24T04:30:22.244Z,1005.23
2017-11-24T04:31:22.171Z,1005.25
2017-11-24T04:32:22.115Z,1005.29
2017-11-24T04:33:22.055Z,1005.26
2017-11-24T04:34:22.000Z,1005.25
2017-11-24T04:35:21.950Z,1005.20
2017-11-24T04:36:21.889Z,1005.23
2017-11-24T04:37:21.839Z,1005.22
2017-11-24T04:38:21.759Z,1005.23
2017-11-24T04:39:21.699Z,1005.19
2017-11-24T04:40:21.649Z,1005.14
2017-11-24T04:41:21.586Z,1005.14
2017-11-24T04:42:21.522Z,1005.14
2017-11-24T04:43:21.458Z,1005.14
2017-11-24T04:44:21.402Z,1005.16
2017-11-24T04:45:21.347Z,1005.12
2017-11-24T04:46:21.287Z,1005.14
2017-11-24T04:47:21.228Z,1005.15
2017-11-24T04:48:21.178Z,1005.08
2017-11-24T04:49:21.115Z,1005.12
2017-11-24T04:50:21.059Z,1005.13
2017-11-24T04:51:21.004Z,1005.14
2017-11-24T04:52:20.956Z,1005.13
2017-11-24T04:53:20.879Z,1005.18
2017-11-24T04:54:20.813Z,1005.21
2017-11-24T04:55:20.755Z,1005.27
2017-11-24T04:56:20.696Z,1005.23
2017-11-24T04:57:20.641Z,1005.25
2017-11-24T04:58:20.572Z,1005.24
2017-11-24T04:59:20.514Z,1005.20
2017-11-24T05:00:20.458Z,1005.19
2017-11-24T05:01:20.401Z,1005.08
2017-11-24T05:02:20.343Z,1005.11
2017-11-24T05:03:20.284Z,1005.06
2017-11-24T05:04:20.229Z,1005.01
2017-11-24T05:05:20.174Z,1005.04
2017-11-24T05:06:20.119Z,1005.02
2017-11-24T05:07:20.050Z,1004.98
2017-11-24T05:08:19.986Z,1005.00
2017-11-24T05:09:19.928Z,1005.02
2017-11-24T05:10:19.871Z,1005.04
2017-11-24T05:11:19.807Z,1005.04
2017-11-24T05:12:19.744Z,1005.03
2017-11-24T05:13:19.688Z,1005.05
2017-11-24T05:14:19.631Z,1005.04
2017-11-24T05:15:19.571Z,1005.00
2017-11-24T05:16:19.523Z,1005.02
2017-11-24T05:17:19.456Z,1005.02
2017-11-24T05:18:19.398Z,1004.99
2017-11-24T05:19:19.345Z,1004.97
2017-11-24T05:20:19.289Z,1004.93
2017-11-24T05:21:19.235Z,1004.93
2017-11-24T05:22:19.158Z,1004.92
2017-11-24T05:23:19.098Z,1004.89
2017-11-24T05:24:19.042Z,1004.91
2017-11-24T05:25:18.981Z,1004.91
2017-11-24T05:26:18.915Z,1004.88
2017-11-24T05:27:18.865Z,1004.85
2017-11-24T05:28:18.801Z,1004.80
2017-11-24T05:29:18.740Z,1004.86
2017-11-24T05:30:18.687Z,1004.82
2017-11-24T05:31:18.625Z,1004.79
2017-11-24T05:32:18.574Z,1004.80
2017-11-24T05:33:18.514Z,1004.80
2017-11-24T05:34:18.460Z,1004.84
2017-11-24T05:35:18.405Z,1004.83
2017-11-24T05:36:18.330Z,1004.80
2017-11-24T05:37:18.269Z,1004.80
2017-11-24T05:38:18.215Z,1004.84
2017-11-24T05:39:18.154Z,1004.87
2017-11-24T05:40:18.084Z,1004.89
2017-11-24T05:41:18.034Z,1004.90
2017-11-24T05:42:17.968Z,1004.90
2017-11-24T05:43:17.912Z,1004.95
2017-11-24T05:44:17.853Z,1004.85
2017-11-24T05:45:17.797Z,1004.85
2017-11-24T05:46:17.740Z,1004.78
2017-11-24T05:47:17.684Z,1004.77
2017-11-24T05:48:17.619Z,1004.71
2017-11-24T05:49:17.575Z,1004.74
2017-11-24T05:50:17.506Z,1004.79
2017-11-24T05:51:17.440Z,1004.75
2017-11-24T05:52:17.378Z,1004.83
2017-11-24T05:53:17.331Z,1004.83
2017-11-24T05:54:17.257Z,1004.83
2017-11-24T05:55:17.200Z,1004.81
2017-11-24T05:56:17.139Z,1004.82
2017-11-24T05:57:17.085Z,1004.87
2017-11-24T05:58:17.027Z,1004.91
2017-11-24T05:59:16.973Z,1004.89
2017-11-24T06:00:16.910Z,1004.91
2017-11-24T06:01:16.854Z,1004.89
2017-11-24T06:02:16.800Z,1004.92
2017-11-24T06:03:16.746Z,1004.86
2017-11-24T06:04:16.669Z,1004.87
2017-11-24T06:05:16.614Z,1004.82
2017-11-24T06:06:16.559Z,1004.86
2017-11-24T06:07:16.493Z,1004.81
2017-11-24T06:08:16.434Z,1004.77
2017-11-24T06:09:16.371Z,1004.76
2017-11-24T06:10:16.310Z,1004.74
2017-11-24T06:11:16.255Z,1004.75
2017-11-24T06:12:16.197Z,1004.75
2017-11-24T06:13:16.140Z,1004.78
2017-11-24T06:14:16.081Z,1004.80
2017-11-24T06:15:16.024Z,1004.79
2017-11-24T06:16:15.969Z,1004.74
2017-11-24T06:17:15.900Z,1004.70
2017-11-24T06:18:15.861Z,1004.63
2017-11-24T06:19:15.784Z,1004.62
2017-11-24T06:20:15.725Z,1004.60
2017-11-24T06:21:15.666Z,1004.58
2017-11-24T06:22:15.607Z,1004.58
2017-11-24T06:23:15.541Z,1004.53
2017-11-24T06:24:15.483Z,1004.53
2017-11-24T06:25:15.424Z,1004.49
2017-11-24T06:26:15.366Z,1004.45
2017-11-24T06:27:15.308Z,1004.44
2017-11-24T06:28:15.251Z,1004.42
2017-11-24T06:29:15.198Z,1004.40
2017-11-24T06:30:15.141Z,1004.38
2017-11-24T06:31:15.084Z,1004.36
2017-11-24T06:32:15.031Z,1004.38
2017-11-24T06:33:14.956Z,1004.32
2017-11-24T06:34:14.895Z,1004.33
2017-11-24T06:35:14.835Z,1004.30
2017-11-24T06:36:14.776Z,1004.23
2017-11-24T06:37:14.711Z,1004.21
2017-11-24T06:38:14.663Z,1004.21
2017-11-24T06:39:14.604Z,1004.21
2017-11-24T06:40:14.537Z,1004.23
2017-11-24T06:41:14.480Z,1004.25
2017-11-24T06:42:14.422Z,1004.31
2017-11-24T06:43:14.369Z,1004.28
2017-11-24T06:44:14.305Z,1004.27
2017-11-24T06:45:14.255Z,1004.24
2017-11-24T06:46:14.206Z,1004.29
2017-11-24T06:47:14.172Z,1004.32
2017-11-24T06:48:14.067Z,1004.30
2017-11-24T06:49:14.007Z,1004.30
2017-11-24T06:50:13.947Z,1004.28
2017-11-24T06:51:13.891Z,1004.24
2017-11-24T06:52:13.824Z,1004.22
2017-11-24T06:53:13.766Z,1004.21
2017-11-24T06:54:13.707Z,1004.20
2017-11-24T06:55:13.651Z,1004.18
2017-11-24T06:56:13.592Z,1004.14
2017-11-24T06:57:13.544Z,1004.13
2017-11-24T06:58:13.480Z,1004.08
2017-11-24T06:59:13.426Z,1004.07
2017-11-24T07:00:13.373Z,1004.05
2017-11-24T07:01:13.296Z,1004.08
2017-11-24T07:02:13.237Z,1004.08
2017-11-24T07:03:13.176Z,1004.06
2017-11-24T07:04:13.122Z,1003.97
2017-11-24T07:05:13.060Z,1003.99
2017-11-24T07:06:13.005Z,1003.98
2017-11-24T07:07:12.937Z,1003.93
2017-11-24T07:08:12.879Z,1003.88
2017-11-24T07:09:12.824Z,1003.93
2017-11-24T07:10:12.762Z,1003.88
2017-11-24T07:11:12.714Z,1003.86
2017-11-24T07:12:12.651Z,1003.90
2017-11-24T07:13:12.583Z,1003.89
2017-11-24T07:14:12.539Z,1003.87
2017-11-24T07:15:12.484Z,1003.92
2017-11-24T07:16:12.408Z,1003.92
2017-11-24T07:17:12.353Z,1003.90
2017-11-24T07:18:12.302Z,1003.89
2017-11-24T07:19:12.224Z,1003.90
2017-11-24T07:20:12.166Z,1003.89
2017-11-24T07:21:12.108Z,1003.89
2017-11-24T07:22:12.055Z,1003.83
2017-11-24T07:23:11.993Z,1003.77
2017-11-24T07:24:11.934Z,1003.81
2017-11-24T07:25:11.877Z,1003.80
2017-11-24T07:26:11.825Z,1003.88
2017-11-24T07:27:11.765Z,1003.83
2017-11-24T07:28:11.710Z,1003.81
2017-11-24T07:29:11.660Z,1003.72
2017-11-24T07:30:11.583Z,1003.74
2017-11-24T07:31:11.531Z,1003.70
2017-11-24T07:32:11.461Z,1003.74
2017-11-24T07:33:11.402Z,1003.69
2017-11-24T07:34:11.345Z,1003.69
2017-11-24T07:35:11.280Z,1003.63
2017-11-24T07:36:11.222Z,1003.54
2017-11-24T07:37:11.165Z,1003.64
2017-11-24T07:38:11.108Z,1003.60
2017-11-24T07:39:11.048Z,1003.52
2017-11-24T07:40:11.001Z,1003.55
2017-11-24T07:41:10.937Z,1003.61
2017-11-24T07:42:10.870Z,1003.55
2017-11-24T07:43:10.826Z,1003.53
2017-11-24T07:44:10.771Z,1003.48
2017-11-24T07:45:10.695Z,1003.55
2017-11-24T07:46:10.636Z,1003.48
2017-11-24T07:47:10.577Z,1003.48
2017-11-24T07:48:10.519Z,1003.45
2017-11-24T07:49:10.454Z,1003.43
2017-11-24T07:50:10.394Z,1003.46
2017-11-24T07:51:10.336Z,1003.46
2017-11-24T07:52:10.308Z,1003.47
2017-11-24T07:53:10.222Z,1003.45
2017-11-24T07:54:10.164Z,1003.49
2017-11-24T07:55:10.107Z,1003.39
2017-11-24T07:56:10.053Z,1003.33
2017-11-24T07:57:09.995Z,1003.36
2017-11-24T07:58:09.941Z,1003.34
2017-11-24T07:59:09.886Z,1003.29
2017-11-24T08:00:09.812Z,1003.27
2017-11-24T08:01:09.754Z,1003.22
2017-11-24T08:02:09.693Z,1003.19
2017-11-24T08:03:09.629Z,1003.12
2017-11-24T08:04:09.574Z,1003.15
2017-11-24T08:05:09.516Z,1003.09
2017-11-24T08:06:09.452Z,1003.05
2017-11-24T08:07:09.395Z,1003.02
2017-11-24T08:08:09.338Z,1002.96
2017-11-24T08:09:09.280Z,1002.93
2017-11-24T08:10:09.222Z,1003.02
2017-11-24T08:11:09.167Z,1003.06
2017-11-24T08:12:09.112Z,1003.04
2017-11-24T08:13:09.057Z,1002.99
2017-11-24T08:14:09.002Z,1003.00
2017-11-24T08:15:08.928Z,1002.95
2017-11-24T08:16:08.872Z,1003.01
2017-11-24T08:17:08.812Z,1003.07
2017-11-24T08:18:08.751Z,1003.19
2017-11-24T08:19:08.693Z,1003.13
2017-11-24T08:20:08.635Z,1003.13
2017-11-24T08:21:08.584Z,1003.14
2017-11-24T08:22:08.514Z,1003.16
2017-11-24T08:23:08.458Z,1003.19
2017-11-24T08:24:08.409Z,1003.10
2017-11-24T08:25:08.341Z,1003.08
2017-11-24T08:26:08.285Z,1003.06
2017-11-24T08:27:08.227Z,1003.04
2017-11-24T08:28:08.180Z,1002.92
2017-11-24T08:29:08.123Z,1002.86
2017-11-24T08:30:08.065Z,1002.89
2017-11-24T08:31:08.010Z,1002.93
2017-11-24T08:32:07.937Z,1002.92
2017-11-24T08:33:07.878Z,1002.88
2017-11-24T08:34:07.820Z,1002.84
2017-11-24T08:35:07.762Z,1002.92
2017-11-24T08:36:07.705Z,1002.90
2017-11-24T08:37:07.642Z,1002.86
2017-11-24T08:38:07.588Z,1002.79
2017-11-24T08:39:07.529Z,1002.80
2017-11-24T08:40:07.463Z,1002.79
2017-11-24T08:41:07.423Z,1002.79
2017-11-24T08:42:07.353Z,1002.72
2017-11-24T08:43:07.294Z,1002.72
2017-11-24T08:44:07.245Z,1002.77
2017-11-24T08:45:07.192Z,1002.81
2017-11-24T08:46:07.124Z,1002.84
2017-11-24T08:47:07.071Z,1002.83
2017-11-24T08:48:07.014Z,1002.77
2017-11-24T08:49:06.958Z,1002.79
2017-11-24T08:50:06.905Z,1002.89
2017-11-24T08:51:06.850Z,1002.85
2017-11-24T08:52:06.771Z,1002.81
2017-11-24T08:53:06.719Z,1002.73
2017-11-24T08:54:06.659Z,1002.68
2017-11-24T08:55:06.601Z,1002.71
2017-11-24T08:56:06.541Z,1002.85
2017-11-24T08:57:06.485Z,1002.82
2017-11-24T08:58:06.419Z,1002.70
2017-11-24T08:59:06.365Z,1002.62
2017-11-24T09:00:06.319Z,1002.72
2017-11-24T09:01:06.249Z,1002.74
2017-11-24T09:02:06.195Z,1002.62
2017-11-24T09:03:06.137Z,1002.46
2017-11-24T09:04:06.087Z,1002.48
2017-11-24T09:05:06.027Z,1002.55
2017-11-24T09:06:05.977Z,1002.37
2017-11-24T09:07:05.912Z,1002.47
2017-11-24T09:08:05.856Z,1002.37
2017-11-24T09:09:05.802Z,1002.41
2017-11-24T09:10:05.749Z,1002.40
2017-11-24T09:11:05.691Z,1002.39
2017-11-24T09:12:05.617Z,1002.31
2017-11-24T09:13:05.557Z,1002.42
2017-11-24T09:14:05.508Z,1002.41
2017-11-24T09:15:05.443Z,1002.47
2017-11-24T09:16:05.386Z,1002.58
2017-11-24T09:17:05.336Z,1002.47
2017-11-24T09:18:05.270Z,1002.42
2017-11-24T09:19:05.207Z,1002.31
2017-11-24T09:20:05.147Z,1002.36
2017-11-24T09:21:05.093Z,1002.56
2017-11-24T09:22:05.040Z,1002.41
2017-11-24T09:23:04.974Z,1002.36
2017-11-24T09:24:04.922Z,1002.45
2017-11-24T09:25:04.864Z,1002.51
2017-11-24T09:26:04.811Z,1002.40
2017-11-24T09:27:04.763Z,1002.44
2017-11-24T09:28:04.698Z,1002.42
2017-11-24T09:29:04.645Z,1002.45
2017-11-24T09:30:04.590Z,1002.43
2017-11-24T09:31:04.535Z,1002.33
2017-11-24T09:32:04.478Z,1002.29
2017-11-24T09:33:04.426Z,1002.28
2017-11-24T09:34:04.373Z,1002.38
2017-11-24T09:35:04.293Z,1002.46
2017-11-24T09:36:04.239Z,1002.37
2017-11-24T09:37:04.189Z,1002.35
2017-11-24T09:38:04.130Z,1002.09
2017-11-24T09:39:04.069Z,1002.14
2017-11-24T09:40:04.013Z,1002.25
2017-11-24T09:41:03.957Z,1002.26
2017-11-24T09:42:03.900Z,1002.28
2017-11-24T09:43:03.844Z,1002.29
2017-11-24T09:44:03.798Z,1002.44
2017-11-24T09:45:03.732Z,1002.30
2017-11-24T09:46:03.672Z,1002.21
2017-11-24T09:47:03.610Z,1002.15
2017-11-24T09:48:03.575Z,1002.23
2017-11-24T09:49:03.501Z,1002.15
2017-11-24T09:50:03.448Z,1002.17
2017-11-24T09:51:03.389Z,1002.16
2017-11-24T09:52:03.336Z,1002.23
2017-11-24T09:53:03.277Z,1002.31
2017-11-24T09:54:03.221Z,1002.23
2017-11-24T09:55:03.169Z,1002.30
2017-11-24T09:56:03.119Z,1002.16
2017-11-24T09:57:03.062Z,1002.04
2017-11-24T09:58:02.997Z,1002.08
2017-11-24T09:59:02.941Z,1002.08
2017-11-24T10:00:02.889Z,1002.07
2017-11-24T10:01:02.833Z,1002.06
2017-11-24T10:02:02.776Z,1002.06
2017-11-24T10:03:02.721Z,1002.08
2017-11-24T10:04:02.668Z,1002.07
2017-11-24T10:05:02.611Z,1002.07
2017-11-24T10:06:02.557Z,1002.02
2017-11-24T10:07:02.495Z,1002.02
2017-11-24T10:08:02.456Z,1002.03
2017-11-24T10:09:02.391Z,1001.99
2017-11-24T10:10:02.328Z,1001.93
2017-11-24T10:11:02.284Z,1001.81
2017-11-24T10:12:02.228Z,1001.86
2017-11-24T10:13:02.173Z,1001.81
2017-11-24T10:14:02.117Z,1001.90
2017-11-24T10:15:02.062Z,1001.93
2017-11-24T10:16:02.008Z,1001.92
2017-11-24T10:17:01.954Z,1001.83
2017-11-24T10:18:01.899Z,1001.70
2017-11-24T10:19:01.825Z,1001.71
2017-11-24T10:20:01.770Z,1001.79
2017-11-24T10:21:01.712Z,1001.88
2017-11-24T10:22:01.663Z,1001.86
2017-11-24T10:23:01.599Z,1001.82
2017-11-24T10:24:01.542Z,1001.90
2017-11-24T10:25:01.489Z,1001.88
2017-11-24T10:26:01.433Z,1001.81
2017-11-24T10:27:01.375Z,1001.74
2017-11-24T10:28:01.329Z,1001.84
2017-11-24T10:29:01.262Z,1001.81
2017-11-24T10:30:01.210Z,1001.84
2017-11-24T10:31:01.144Z,1001.84
2017-11-24T10:32:01.085Z,1001.79
2017-11-24T10:33:01.029Z,1001.86
2017-11-24T10:34:00.973Z,1001.82
2017-11-24T10:35:00.918Z,1001.77
2017-11-24T10:36:00.864Z,1001.74
2017-11-24T10:37:00.808Z,1001.82
2017-11-24T10:38:00.751Z,1001.77
2017-11-24T10:39:00.697Z,1001.86
2017-11-24T10:40:00.647Z,1001.73
2017-11-24T10:41:00.584Z,1001.83
2017-11-24T10:42:00.536Z,1001.78
2017-11-24T10:43:00.468Z,1001.79
2017-11-24T10:44:00.413Z,1001.73
2017-11-24T10:45:00.361Z,1001.73
2017-11-24T10:46:00.305Z,1001.70
2017-11-24T10:47:00.252Z,1001.77
2017-11-24T10:48:00.194Z,1001.83
2017-11-24T10:49:00.134Z,1001.83
2017-11-24T10:50:00.087Z,1001.76
2017-11-24T10:51:00.031Z,1001.78
2017-11-24T10:51:59.975Z,1001.79
2017-11-24T10:52:59.920Z,1001.84
2017-11-24T10:53:59.866Z,1001.90
2017-11-24T10:54:59.794Z,1001.78
2017-11-24T10:55:59.732Z,1001.79
2017-11-24T10:56:59.679Z,1001.84
2017-11-24T10:57:59.624Z,1001.80
2017-11-24T10:58:59.566Z,1001.79
2017-11-24T10:59:59.508Z,1001.87
2017-11-24T11:00:59.454Z,1001.85
2017-11-24T11:01:59.396Z,1001.87
2017-11-24T11:02:59.333Z,1001.83
2017-11-24T11:03:59.283Z,1001.72
2017-11-24T11:04:59.222Z,1001.80
2017-11-24T11:05:59.169Z,1001.70
2017-11-24T11:06:59.127Z,1001.74
2017-11-24T11:07:59.050Z,1001.78
2017-11-24T11:08:59.000Z,1001.84
2017-11-24T11:09:58.939Z,1001.85
2017-11-24T11:10:58.884Z,1001.90
2017-11-24T11:11:58.839Z,1001.89
2017-11-24T11:12:58.773Z,1001.86
2017-11-24T11:13:58.716Z,1001.90
2017-11-24T11:14:58.661Z,1001.96
2017-11-24T11:15:58.605Z,1001.88
2017-11-24T11:16:58.548Z,1001.85
2017-11-24T11:17:58.493Z,1001.92
2017-11-24T11:18:58.436Z,1001.88
2017-11-24T11:19:58.382Z,1001.98
2017-11-24T11:20:58.328Z,1002.00
2017-11-24T11:21:58.271Z,1001.97
2017-11-24T11:22:58.216Z,1001.92
2017-11-24T11:23:58.162Z,1001.98
2017-11-24T11:24:58.108Z,1001.87
2017-11-24T11:25:58.053Z,1001.93
2017-11-24T11:26:58.002Z,1001.94
2017-11-24T11:27:57.944Z,1001.85
2017-11-24T11:28:57.866Z,1001.84
2017-11-24T11:29:57.820Z,1001.86
2017-11-24T11:30:57.756Z,1001.82
2017-11-24T11:31:57.726Z,1001.84
2017-11-24T11:32:57.641Z,1001.89
2017-11-24T11:33:57.586Z,1001.85
2017-11-24T11:34:57.536Z,1001.79
2017-11-24T11:35:57.471Z,1001.85
2017-11-24T11:36:57.418Z,1001.85
2017-11-24T11:37:57.372Z,1001.86
2017-11-24T11:38:57.295Z,1001.92
2017-11-24T11:39:57.246Z,1001.87
2017-11-24T11:40:57.182Z,1001.86
2017-11-24T11:41:57.128Z,1001.79
2017-11-24T11:42:57.076Z,1001.86
2017-11-24T11:43:57.036Z,1001.81
2017-11-24T11:44:56.960Z,1001.80
2017-11-24T11:45:56.907Z,1001.79
2017-11-24T11:46:56.846Z,1001.77
2017-11-24T11:47:56.790Z,1001.78
2017-11-24T11:48:56.734Z,1001.83
2017-11-24T11:49:56.685Z,1001.87
2017-11-24T11:50:56.623Z,1001.83
2017-11-24T11:51:56.563Z,1001.86
2017-11-24T11:52:56.511Z,1001.90
2017-11-24T11:53:56.470Z,1001.88
2017-11-24T11:54:56.403Z,1001.84
2017-11-24T11:55:56.349Z,1001.88
2017-11-24T11:56:56.288Z,1001.93
2017-11-24T11:57:56.241Z,1001.94
2017-11-24T11:58:56.186Z,1001.90
2017-11-24T11:59:56.110Z,1001.94
2017-11-24T12:00:56.055Z,1001.80
2017-11-24T12:01:55.996Z,1001.93
2017-11-24T12:02:55.937Z,1001.90
2017-11-24T12:03:55.882Z,1001.91
2017-11-24T12:04:55.826Z,1001.96